Time;durP1;ratioP1;P1;durP2;ratioP2;P2;SDS_P1;SDS_P2;PMS_P1;PMS_P2;Temp;Humidity;BMP_temperature;BMP_pressure;BME280_temperature;BME280_humidity;BME280_pressure;Samples;Min_cycle;Max_cycle;Signal;HPM_P1;HPM_P2
2021/12/16 00:09:09;;;;;;;5.65;3.45;;;;;;;4.75;56.32;99683.28;3376613;29;20424;-72
2021/12/16 00:11:23;;;;;;;7.88;4.10;;;;;;;4.76;56.30;99671.75;3377339;29;20044;-73
2021/12/16 00:34:26;;;;;;;6.28;4.07;;;;;;;4.71;56.41;99624.69;3390420;29;20122;-72
2021/12/16 00:36:08;;;;;;;6.55;4.13;;;;;;;4.69;56.57;99616.09;3390183;29;20147;-72
2021/12/16 00:37:50;;;;;;;5.90;4.15;;;;;;;4.68;56.55;99632.94;3389075;29;20048;-73
2021/12/16 00:39:33;;;;;;;6.45;4.03;;;;;;;4.65;56.64;99612.16;3385973;29;20056;-72
2021/12/16 00:41:14;;;;;;;6.45;4.07;;;;;;;4.65;56.69;99617.44;3386866;29;20135;-72
2021/12/16 00:43:00;;;;;;;6.28;3.50;;;;;;;4.67;56.81;99620.72;3388507;29;20148;-70
2021/12/16 00:48:24;;;;;;;5.80;3.58;;;;;;;4.68;56.71;99603.09;3389712;29;20044;-71
2021/12/16 00:54:07;;;;;;;7.57;3.60;;;;;;;4.66;56.61;99597.94;3388799;29;20044;-70
2021/12/16 00:54:20;;;;;;;6.20;3.67;;;;;;;4.70;56.70;99591.38;3375929;29;20068;-73
2021/12/16 00:56:01;;;;;;;6.32;3.92;;;;;;;4.72;56.62;99599.94;3363143;29;20051;-73
2021/12/16 00:57:48;;;;;;;4.95;3.42;;;;;;;4.71;56.74;99586.91;3373222;29;20044;-74
2021/12/16 00:59:34;;;;;;;6.47;3.58;;;;;;;4.71;56.62;99585.09;3385027;29;20396;-74
2021/12/16 01:01:33;;;;;;;5.03;3.78;;;;;;;4.73;56.89;99582.31;3388667;29;20427;-76
2021/12/16 01:03:26;;;;;;;6.57;3.33;;;;;;;4.74;56.77;99565.47;3400965;29;20411;-74
2021/12/16 01:33:50;;;;;;;5.25;3.78;;;;;;;4.76;56.91;99493.06;3388310;29;20047;-72
2021/12/16 01:35:46;;;;;;;5.78;3.42;;;;;;;4.76;56.71;99474.56;3387720;29;20067;-71
2021/12/16 01:50:56;;;;;;;5.25;3.22;;;;;;;4.85;56.66;99450.81;3389388;29;20040;-72
2021/12/16 01:58:14;;;;;;;3.10;2.83;;;;;;;4.85;56.83;99427.06;3389302;29;20079;-72
2021/12/16 02:00:07;;;;;;;3.50;2.72;;;;;;;4.87;56.99;99436.47;3389493;29;20044;-72
2021/12/16 02:02:04;;;;;;;4.32;3.00;;;;;;;4.88;56.93;99437.28;3375306;29;20047;-73
2021/12/16 02:03:53;;;;;;;4.05;2.92;;;;;;;4.87;56.96;99443.56;3384512;29;20147;-71
2021/12/16 02:07:56;;;;;;;4.78;3.40;;;;;;;4.87;57.02;99433.00;3389279;29;20036;-73
2021/12/16 02:09:41;;;;;;;3.42;2.60;;;;;;;4.81;57.05;99427.38;3387650;29;20119;-75
2021/12/16 02:11:42;;;;;;;4.05;2.55;;;;;;;4.73;57.07;99414.19;3386566;29;20044;-74
2021/12/16 02:27:28;;;;;;;4.05;2.22;;;;;;;4.74;57.39;99368.31;3391541;29;20443;-71
2021/12/16 02:29:24;;;;;;;2.95;2.30;;;;;;;4.72;57.45;99369.47;3389971;29;20048;-75
2021/12/16 02:31:24;;;;;;;3.78;2.50;;;;;;;4.74;57.56;99367.47;3391554;29;20119;-73
2021/12/16 02:33:16;;;;;;;5.18;2.70;;;;;;;4.74;57.54;99357.75;3391002;29;20096;-73
2021/12/16 02:35:13;;;;;;;;;;;;;;;4.85;57.28;99353.13;3391029;29;20046;-72
2021/12/16 02:36:54;;;;;;;3.28;2.15;;;;;;;4.75;57.48;99342.72;3403184;29;20721;-73
2021/12/16 02:38:35;;;;;;;2.60;2.15;;;;;;;4.76;57.48;99333.84;3388395;29;20071;-72
2021/12/16 02:40:18;;;;;;;1.88;1.70;;;;;;;4.75;57.74;99335.66;3376910;29;20438;-73
2021/12/16 02:42:07;;;;;;;7.10;2.53;;;;;;;4.72;57.86;99328.03;3377868;29;20044;-72
2021/12/16 02:49:53;;;;;;;2.72;2.17;;;;;;;4.66;58.00;99333.19;3392921;29;20043;-73
2021/12/16 02:51:34;;;;;;;3.60;2.88;;;;;;;4.64;58.33;99335.97;3390218;29;20096;-73
2021/12/16 02:53:15;;;;;;;2.78;2.45;;;;;;;4.65;58.23;99332.34;3391163;29;20047;-72
2021/12/16 02:54:57;;;;;;;3.00;2.30;;;;;;;4.66;58.33;99338.44;3390439;29;20100;-73
2021/12/16 02:56:38;;;;;;;4.35;2.72;;;;;;;4.66;58.22;99344.56;3387811;29;20571;-73
2021/12/16 02:58:18;;;;;;;2.58;1.98;;;;;;;4.68;58.33;99339.94;3391257;29;20043;-74
2021/12/16 02:59:59;;;;;;;3.70;2.95;;;;;;;4.70;58.30;99339.75;3390795;29;20040;-73
2021/12/16 03:01:48;;;;;;;2.13;1.80;;;;;;;4.72;58.46;99333.31;3377155;29;20135;-74
2021/12/16 03:03:29;;;;;;;1.90;1.70;;;;;;;4.74;58.33;99330.53;3387419;29;20055;-73
2021/12/16 03:05:11;;;;;;;2.22;1.90;;;;;;;4.75;58.24;99325.09;3390778;29;20032;-74
2021/12/16 03:06:56;;;;;;;2.45;2.05;;;;;;;4.78;58.24;99311.56;3390236;29;20072;-73
2021/12/16 03:08:38;;;;;;;2.03;1.83;;;;;;;4.80;58.21;99308.72;3390098;29;20040;-72
2021/12/16 03:12:45;;;;;;;2.90;1.83;;;;;;;4.81;58.19;99290.09;3391026;29;20090;-72
2021/12/16 03:14:37;;;;;;;1.50;1.23;;;;;;;4.89;58.02;99297.19;3390126;29;20102;-73
2021/12/16 03:16:38;;;;;;;2.85;1.75;;;;;;;4.90;58.08;99300.63;3388783;29;20043;-72
2021/12/16 03:20:34;;;;;;;2.00;1.67;;;;;;;4.91;58.00;99307.59;3390408;29;20516;-72
2021/12/16 03:22:51;;;;;;;2.22;2.08;;;;;;;4.93;57.73;99313.50;3389846;29;20040;-71
2021/12/16 03:34:09;;;;;;;2.17;1.63;;;;;;;4.92;57.97;99280.19;3390173;29;20576;-71
2021/12/16 03:36:13;;;;;;;2.17;1.83;;;;;;;4.94;58.18;99288.75;3389898;29;20131;-71
2021/12/16 03:38:01;;;;;;;2.42;2.03;;;;;;;4.92;58.23;99280.19;3389845;29;20044;-71
2021/12/16 03:40:05;;;;;;;2.22;1.77;;;;;;;4.93;58.29;99269.47;3387989;29;20043;-72
2021/12/16 03:41:46;;;;;;;1.67;1.58;;;;;;;4.91;58.31;99270.63;3388988;29;20056;-72
2021/12/16 03:43:29;;;;;;;2.72;1.73;;;;;;;4.87;58.17;99269.28;3361265;29;20088;-73
2021/12/16 03:46:25;;;;;;;1.42;1.33;;;;;;;4.90;58.32;99268.97;3361244;29;20416;-73
2021/12/16 03:47:23;;;;;;;3.20;1.98;;;;;;;4.94;58.00;99280.84;3363851;29;20053;-73
2021/12/16 03:49:14;;;;;;;2.20;1.50;;;;;;;4.95;58.14;99275.38;3361718;29;20041;-71
2021/12/16 03:50:56;;;;;;;1.88;1.58;;;;;;;4.97;58.34;99280.50;3362679;29;20128;-74
2021/12/16 03:52:37;;;;;;;1.77;1.65;;;;;;;4.97;58.18;99281.31;3386392;29;20052;-72
2021/12/16 03:54:25;;;;;;;1.45;1.35;;;;;;;4.98;58.34;99276.84;3387204;29;20051;-72
2021/12/16 03:56:10;;;;;;;3.72;2.00;;;;;;;4.97;58.19;99277.84;3375326;29;20091;-73
2021/12/16 03:58:10;;;;;;;3.90;2.13;;;;;;;4.97;58.24;99283.13;3389292;29;20047;-72
2021/12/16 03:59:52;;;;;;;;;;;;;;;5.08;58.06;99281.94;3400611;29;20059;-73
2021/12/16 04:01:50;;;;;;;1.63;1.38;;;;;;;5.00;58.00;99261.66;3391022;29;20025;-73
2021/12/16 04:03:38;;;;;;;2.72;2.00;;;;;;;4.97;58.27;99267.28;3389649;29;20047;-71
2021/12/16 04:05:20;;;;;;;1.48;1.38;;;;;;;4.96;58.22;99261.19;3389779;29;20496;-73
2021/12/16 04:07:03;;;;;;;2.15;1.70;;;;;;;4.96;58.12;99255.91;3400124;29;20066;-73
2021/12/16 04:08:48;;;;;;;2.17;1.92;;;;;;;4.96;58.21;99253.28;3389593;29;20051;-74
2021/12/16 04:10:47;;;;;;;2.72;2.10;;;;;;;4.98;58.30;99255.72;3387139;29;20443;-74
2021/12/16 04:12:31;;;;;;;2.30;1.75;;;;;;;5.00;58.32;99248.47;3389181;29;20049;-72
2021/12/16 04:14:13;;;;;;;2.38;1.60;;;;;;;4.99;58.33;99242.38;3390089;29;20052;-73
2021/12/16 04:15:58;;;;;;;1.40;1.23;;;;;;;4.99;58.29;99237.09;3389328;29;20135;-74
2021/12/16 04:17:42;;;;;;;2.47;1.95;;;;;;;5.03;58.37;99240.19;3389391;29;20539;-72
2021/12/16 04:19:26;;;;;;;2.25;2.00;;;;;;;5.03;58.28;99225.19;3373910;29;20049;-72
2021/12/16 04:21:07;;;;;;;1.90;1.80;;;;;;;5.05;58.49;99227.66;3384464;29;20132;-74
2021/12/16 04:22:47;;;;;;;1.55;1.45;;;;;;;5.05;58.42;99219.72;3386570;29;20072;-72
2021/12/16 04:24:33;;;;;;;1.80;1.48;;;;;;;5.07;58.39;99224.84;3387091;29;20052;-73
2021/12/16 04:26:16;;;;;;;1.92;1.60;;;;;;;5.07;58.31;99230.94;3389225;29;20091;-70
2021/12/16 04:28:02;;;;;;;2.75;2.17;;;;;;;5.06;58.51;99226.69;3389499;29;20036;-72
2021/12/16 04:29:44;;;;;;;1.92;1.40;;;;;;;5.08;58.51;99222.03;3400138;29;20043;-74
2021/12/16 04:31:25;;;;;;;2.20;1.80;;;;;;;5.09;58.28;99217.59;3375654;29;20040;-74
2021/12/16 04:33:06;;;;;;;1.70;1.60;;;;;;;5.12;58.27;99222.53;3384068;29;20043;-72
2021/12/16 04:34:49;;;;;;;1.95;1.85;;;;;;;5.09;58.46;99215.75;3386797;29;20050;-71
2021/12/16 04:36:30;;;;;;;2.17;1.50;;;;;;;5.10;58.32;99212.13;3390034;29;20075;-74
2021/12/16 04:38:12;;;;;;;2.63;1.58;;;;;;;5.09;58.50;99205.19;3388836;29;20512;-73
2021/12/16 04:39:52;;;;;;;1.77;1.55;;;;;;;5.11;58.35;99200.56;3389231;29;20397;-75
2021/12/16 04:41:34;;;;;;;2.78;1.65;;;;;;;5.11;58.42;99205.84;3388574;29;20460;-72
2021/12/16 04:43:20;;;;;;;1.85;1.52;;;;;;;5.10;58.52;99209.47;3399484;29;20043;-74
2021/12/16 04:45:10;;;;;;;4.10;2.03;;;;;;;5.09;58.42;99199.91;3389284;29;20079;-74
2021/12/16 04:46:51;;;;;;;1.77;1.60;;;;;;;5.10;58.53;99206.84;3390372;29;20056;-75
2021/12/16 04:48:32;;;;;;;1.67;1.53;;;;;;;5.10;58.50;99209.47;3389544;29;20052;-72
2021/12/16 04:50:14;;;;;;;1.85;1.67;;;;;;;5.09;58.51;99205.19;3392787;29;20300;-73
2021/12/16 04:51:58;;;;;;;2.20;1.50;;;;;;;5.09;58.73;99212.31;3392412;29;20055;-74
2021/12/16 04:53:40;;;;;;;1.60;1.50;;;;;;;5.05;58.76;99211.81;3402511;29;20071;-74
2021/12/16 04:55:23;;;;;;;2.22;1.58;;;;;;;5.05;59.01;99203.88;3391188;29;20072;-72
2021/12/16 04:57:04;;;;;;;2.70;2.05;;;;;;;5.08;58.74;99206.19;3386687;29;20146;-72
2021/12/16 04:58:48;;;;;;;1.65;1.55;;;;;;;5.08;58.65;99202.72;3386183;29;20192;-71
2021/12/16 05:00:30;;;;;;;2.60;2.03;;;;;;;5.07;58.85;99212.47;3386016;29;20079;-70
2021/12/16 05:02:28;;;;;;;1.90;1.48;;;;;;;5.07;58.92;99199.25;3388562;29;20044;-72
2021/12/16 05:04:23;;;;;;;2.30;1.60;;;;;;;5.06;58.79;99200.25;3388212;29;20048;-72
2021/12/16 05:06:05;;;;;;;2.38;2.00;;;;;;;5.03;58.73;99198.78;3381530;29;20044;-72
2021/12/16 05:07:47;;;;;;;1.35;1.25;;;;;;;5.02;58.83;99201.59;3379580;29;20461;-74
2021/12/16 05:11:25;;;;;;;2.83;1.92;;;;;;;5.07;58.87;99214.28;3388307;29;20032;-70
2021/12/16 05:13:06;;;;;;;2.00;1.85;;;;;;;5.03;59.08;99203.22;3386177;29;20040;-71
2021/12/16 05:14:48;;;;;;;4.05;1.92;;;;;;;5.01;59.21;99197.31;3399146;29;20581;-74
2021/12/16 05:16:29;;;;;;;;;;;;;;;5.11;58.69;99190.00;3375740;29;20040;-71
2021/12/16 05:18:12;;;;;;;2.60;1.50;;;;;;;5.03;58.79;99198.78;3383410;29;20100;-73
2021/12/16 05:20:08;;;;;;;1.30;1.20;;;;;;;4.98;58.90;99193.19;3386993;29;20494;-73
2021/12/16 05:21:56;;;;;;;1.25;1.15;;;;;;;5.00;59.04;99187.72;3382209;29;20048;-73
2021/12/16 05:27:46;;;;;;;1.30;1.20;;;;;;;5.02;58.92;99180.47;3388319;29;20392;-71
2021/12/16 05:29:27;;;;;;;1.67;1.52;;;;;;;5.00;59.11;99187.72;3385665;29;20051;-72
2021/12/16 05:31:11;;;;;;;1.40;1.30;;;;;;;4.98;59.14;99174.72;3380732;29;20606;-75
2021/12/16 05:32:57;;;;;;;2.85;1.40;;;;;;;5.00;59.22;99177.97;3386501;29;20471;-76
2021/12/16 05:34:37;;;;;;;1.75;1.40;;;;;;;5.01;59.31;99178.81;3388324;29;20535;-75
2021/12/16 05:36:19;;;;;;;1.25;1.15;;;;;;;5.00;59.23;99171.88;3387806;29;20044;-75
2021/12/16 05:38:00;;;;;;;1.77;1.63;;;;;;;5.01;59.28;99179.66;3385855;29;20091;-74
2021/12/16 05:39:41;;;;;;;2.17;1.67;;;;;;;5.03;59.18;99187.38;3374846;29;20062;-73
2021/12/16 05:41:43;;;;;;;4.00;1.55;;;;;;;5.03;59.15;99176.81;3387612;29;20036;-73
2021/12/16 05:43:26;;;;;;;3.47;1.67;;;;;;;5.06;59.35;99181.78;3385605;29;20040;-73
2021/12/16 05:45:08;;;;;;;3.97;1.55;;;;;;;5.07;59.22;99180.78;3386126;29;20237;-72
2021/12/16 05:46:49;;;;;;;1.20;1.10;;;;;;;5.09;59.17;99159.47;3385836;29;20087;-73
2021/12/16 05:48:33;;;;;;;1.52;1.30;;;;;;;5.10;59.08;99161.13;3386007;29;20044;-74
2021/12/16 05:50:14;;;;;;;1.20;1.10;;;;;;;5.12;59.18;99164.41;3385387;29;20044;-73
2021/12/16 05:51:55;;;;;;;1.45;1.33;;;;;;;5.14;59.08;99162.44;3375142;29;20051;-74
2021/12/16 05:53:38;;;;;;;3.05;1.83;;;;;;;5.16;59.13;99155.97;3375210;29;20192;-72
2021/12/16 05:55:27;;;;;;;1.58;1.48;;;;;;;5.18;59.00;99155.78;3373205;29;20425;-72
2021/12/16 05:57:28;;;;;;;1.45;1.17;;;;;;;5.18;58.76;99146.03;3368771;29;20037;-72
2021/12/16 05:59:18;;;;;;;2.00;1.23;;;;;;;5.18;58.84;99143.41;3386016;29;20115;-73
2021/12/16 06:01:03;;;;;;;3.50;1.40;;;;;;;5.18;58.96;99146.03;3385642;29;20043;-71
2021/12/16 06:02:46;;;;;;;2.83;1.20;;;;;;;5.18;59.10;99145.22;3361928;29;20397;-72
2021/12/16 06:04:28;;;;;;;1.50;1.40;;;;;;;5.17;58.85;99141.75;3375754;29;20172;-73
2021/12/16 06:06:15;;;;;;;4.38;1.42;;;;;;;5.18;59.06;99153.16;3385782;29;20068;-75
2021/12/16 06:07:56;;;;;;;1.33;0.98;;;;;;;5.19;59.02;99138.97;3385687;29;20529;-74
2021/12/16 06:09:37;;;;;;;2.13;1.10;;;;;;;5.19;59.05;99149.53;3387975;29;20040;-74
2021/12/16 06:11:22;;;;;;;1.65;1.50;;;;;;;5.17;59.24;99152.34;3385785;29;20415;-75
2021/12/16 06:13:04;;;;;;;2.45;1.20;;;;;;;5.17;59.23;99146.22;3388508;29;20044;-74
2021/12/16 06:28:08;;;;;;;1.95;1.60;;;;;;;5.16;59.47;99124.28;3380278;29;20047;-75
2021/12/16 06:29:49;;;;;;;1.33;1.10;;;;;;;5.17;59.44;99131.19;3380739;29;20080;-73
2021/12/16 06:31:31;;;;;;;2.00;1.20;;;;;;;5.18;59.41;99135.47;3382567;29;20056;-72
2021/12/16 06:33:17;;;;;;;4.13;2.28;;;;;;;5.18;59.54;99132.84;3376019;29;20058;-74
2021/12/16 06:34:58;;;;;;;1.50;1.27;;;;;;;5.20;59.66;99127.38;3375314;29;20036;-73
2021/12/16 06:36:39;;;;;;;2.33;1.38;;;;;;;5.19;59.58;99128.41;3374863;29;20358;-76
2021/12/16 06:38:22;;;;;;;1.88;1.38;;;;;;;5.18;59.67;99127.53;3374636;29;20045;-75
2021/12/16 06:40:23;;;;;;;1.60;1.48;;;;;;;5.19;59.50;99128.41;3373695;29;20045;-71
2021/12/16 06:42:25;;;;;;;2.03;1.40;;;;;;;5.18;59.60;99127.53;3372963;29;20048;-72
2021/12/16 06:44:18;;;;;;;2.70;2.50;;;;;;;5.16;59.80;99124.28;3372160;29;20052;-73
2021/12/16 06:46:04;;;;;;;3.28;2.70;;;;;;;5.17;59.61;99110.06;3376260;29;20077;-71
2021/12/16 06:47:52;;;;;;;1.65;1.50;;;;;;;5.16;59.73;99113.72;3365415;29;20045;-72
2021/12/16 06:49:35;;;;;;;3.53;1.88;;;;;;;5.17;59.89;99123.28;3375484;29;20122;-73
2021/12/16 06:51:32;;;;;;;3.20;1.20;;;;;;;5.19;59.88;99112.53;3375270;29;20044;-74
2021/12/16 06:53:22;;;;;;;3.03;1.80;;;;;;;5.22;59.73;99118.28;3375344;29;20052;-72
2021/12/16 06:57:07;;;;;;;2.78;1.73;;;;;;;5.21;59.83;99118.44;3368699;29;20466;-72
2021/12/16 06:59:00;;;;;;;2.78;1.83;;;;;;;5.23;59.74;99112.00;3362870;29;20044;-71
2021/12/16 07:00:46;;;;;;;3.25;1.67;;;;;;;5.22;59.79;99105.09;3362397;29;20633;-73
2021/12/16 07:04:27;;;;;;;4.20;1.75;;;;;;;5.27;59.87;99109.00;3377678;29;20048;-71
2021/12/16 07:06:08;;;;;;;1.73;1.55;;;;;;;5.28;59.93;99110.66;3378176;29;20052;-72
2021/12/16 07:07:50;;;;;;;3.33;1.88;;;;;;;5.28;59.94;99124.69;3377966;29;20127;-71
2021/12/16 07:09:31;;;;;;;2.85;2.13;;;;;;;5.30;59.96;99122.72;3377822;29;20072;-73
2021/12/16 07:11:13;;;;;;;9.50;1.88;;;;;;;5.32;59.92;99120.72;3377839;29;20056;-74
2021/12/16 07:12:56;;;;;;;3.05;1.67;;;;;;;5.34;59.75;99128.44;3380365;29;20415;-73
2021/12/16 07:14:39;;;;;;;1.90;1.73;;;;;;;5.35;59.73;99130.13;3391225;29;20130;-71
2021/12/16 07:16:21;;;;;;;2.85;1.80;;;;;;;5.37;59.78;99125.47;3391347;29;20048;-72
2021/12/16 07:18:02;;;;;;;2.10;1.70;;;;;;;5.37;59.79;99126.31;3390331;29;20044;-73
2021/12/16 07:19:45;;;;;;;2.88;1.92;;;;;;;5.41;59.83;99124.94;3392072;29;20052;-73
2021/12/16 07:21:26;;;;;;;3.65;1.70;;;;;;;5.43;59.84;99130.06;3387407;29;20040;-71
2021/12/16 07:23:09;;;;;;;4.73;1.60;;;;;;;5.44;59.79;99131.69;3379479;29;20045;-71
2021/12/16 07:24:49;;;;;;;11.52;2.72;;;;;;;5.43;59.74;99124.78;3379427;29;20293;-71
2021/12/16 07:26:31;;;;;;;3.37;2.60;;;;;;;5.47;59.78;99132.19;3379275;29;20049;-72
2021/12/16 07:28:13;;;;;;;2.10;1.90;;;;;;;5.49;59.74;99124.06;3389137;29;20130;-72
2021/12/16 07:29:55;;;;;;;6.78;2.75;;;;;;;5.52;59.79;99128.16;3377515;29;20055;-71
2021/12/16 07:31:39;;;;;;;3.55;2.03;;;;;;;5.53;59.84;99145.69;3377336;29;20049;-71
2021/12/16 07:33:20;;;;;;;6.30;1.83;;;;;;;5.52;59.88;99131.63;3385784;29;20146;-72
2021/12/16 07:35:06;;;;;;;3.05;2.38;;;;;;;5.53;59.92;99133.28;3379901;29;20520;-71
2021/12/16 07:36:48;;;;;;;2.25;2.05;;;;;;;5.53;59.78;99135.94;3378006;29;20078;-71
2021/12/16 07:38:29;;;;;;;;;;;;;;;5.64;59.45;99124.13;3386792;29;20538;-72
2021/12/16 07:40:13;;;;;;;2.85;1.75;;;;;;;5.58;59.53;99123.00;3390665;29;19962;-71
2021/12/16 07:41:55;;;;;;;3.63;2.00;;;;;;;5.58;59.71;99123.00;3378668;29;20070;-72
2021/12/16 07:43:53;;;;;;;2.85;1.77;;;;;;;5.57;59.65;99113.44;3376384;29;20143;-70
2021/12/16 07:45:45;;;;;;;4.47;1.85;;;;;;;5.65;59.78;99109.91;3382177;29;20537;-71
2021/12/16 07:47:27;;;;;;;2.60;2.05;;;;;;;5.63;59.61;99120.66;3377342;29;20104;-71
2021/12/16 07:49:11;;;;;;;4.18;2.13;;;;;;;5.63;59.66;99120.66;3377841;29;20135;-72
2021/12/16 07:50:54;;;;;;;2.67;2.35;;;;;;;5.63;59.75;99115.38;3377291;29;20483;-72
2021/12/16 07:52:37;;;;;;;2.60;2.03;;;;;;;5.65;59.60;99116.03;3377031;29;20045;-71
2021/12/16 07:54:19;;;;;;;2.72;1.88;;;;;;;5.67;59.74;99105.25;3377409;29;20052;-71
2021/12/16 07:56:00;;;;;;;2.30;1.98;;;;;;;5.67;59.81;99111.38;3377902;29;20510;-71
2021/12/16 07:57:42;;;;;;;4.45;1.90;;;;;;;5.68;59.73;99094.53;3377488;29;20044;-70
2021/12/16 07:59:26;;;;;;;5.85;1.85;;;;;;;5.71;59.63;99096.00;3377275;29;20448;-71
2021/12/16 08:01:08;;;;;;;2.75;2.22;;;;;;;5.73;59.77;99093.16;3376886;29;20496;-72
2021/12/16 08:02:50;;;;;;;2.60;2.07;;;;;;;5.74;59.62;99089.53;3376058;29;20052;-72
2021/12/16 08:04:33;;;;;;;4.60;2.03;;;;;;;5.73;59.83;99082.56;3376986;29;20661;-72
2021/12/16 08:06:21;;;;;;;2.67;1.85;;;;;;;5.77;59.64;99089.16;3377153;29;20048;-74
2021/12/16 08:08:03;;;;;;;2.58;1.92;;;;;;;5.79;59.80;99092.47;3382903;29;20511;-72
2021/12/16 08:09:46;;;;;;;3.70;2.38;;;;;;;5.81;59.66;99087.81;3377181;29;20555;-71
2021/12/16 08:11:30;;;;;;;4.95;2.20;;;;;;;5.81;59.77;99085.19;3373573;29;20041;-72
2021/12/16 08:13:13;;;;;;;2.92;1.85;;;;;;;5.81;59.66;99069.31;3376643;29;20436;-72
2021/12/16 08:14:54;;;;;;;3.60;1.90;;;;;;;5.80;59.55;99057.06;3363600;29;20540;-71
2021/12/16 08:16:36;;;;;;;5.85;2.08;;;;;;;5.87;59.53;99072.03;3374776;29;20044;-72
2021/12/16 08:18:16;;;;;;;5.88;2.30;;;;;;;5.89;59.66;99061.28;3376978;29;20048;-72
2021/12/16 08:19:57;;;;;;;4.03;2.10;;;;;;;5.89;59.68;99062.13;3377194;29;20047;-76
2021/12/16 08:21:38;;;;;;;2.97;1.83;;;;;;;5.89;59.71;99066.59;3377678;29;20070;-72
2021/12/16 08:23:19;;;;;;;2.28;2.08;;;;;;;5.89;59.64;99066.59;3376909;29;20469;-71
2021/12/16 08:25:00;;;;;;;4.93;2.10;;;;;;;5.89;59.77;99067.41;3377160;29;20043;-69
2021/12/16 08:26:46;;;;;;;3.30;1.90;;;;;;;5.89;59.73;99059.47;3377186;29;20041;-69
2021/12/16 08:28:28;;;;;;;3.28;2.13;;;;;;;5.90;59.60;99068.22;3377019;29;20044;-75
2021/12/16 08:30:11;;;;;;;4.65;2.50;;;;;;;5.91;59.85;99067.19;3376815;29;20556;-71
2021/12/16 08:31:55;;;;;;;3.17;2.33;;;;;;;5.90;59.70;99053.16;3385355;29;20146;-72
2021/12/16 08:33:38;;;;;;;4.15;2.38;;;;;;;5.93;59.69;99057.28;3401157;29;20043;-73
2021/12/16 08:35:19;;;;;;;;;;;;;;;6.04;59.50;99056.88;3384175;29;20044;-70
2021/12/16 08:37:02;;;;;;;2.72;2.17;;;;;;;5.97;59.55;99048.03;3389545;29;19969;-72
2021/12/16 08:38:44;;;;;;;3.85;1.90;;;;;;;5.97;59.58;99048.03;3389394;29;20079;-78
2021/12/16 08:40:25;;;;;;;3.38;2.50;;;;;;;5.97;59.62;99055.13;3378588;29;20036;-72
2021/12/16 08:42:09;;;;;;;5.40;2.50;;;;;;;5.98;59.31;99044.34;3380982;29;20119;-72
2021/12/16 08:43:50;;;;;;;3.10;2.35;;;;;;;5.99;59.65;99055.75;3381404;29;20140;-70
2021/12/16 08:45:31;;;;;;;4.47;2.17;;;;;;;6.00;59.56;99052.13;3389441;29;20074;-71
2021/12/16 08:47:16;;;;;;;3.70;2.28;;;;;;;5.99;59.72;99056.59;3390062;29;20488;-71
2021/12/16 08:48:57;;;;;;;3.72;2.33;;;;;;;6.00;59.70;99052.94;3381842;29;20453;-70
2021/12/16 08:50:44;;;;;;;2.75;2.38;;;;;;;6.01;59.75;99053.75;3389267;29;20070;-74
2021/12/16 08:52:25;;;;;;;3.78;3.00;;;;;;;6.02;59.76;99053.59;3387657;29;20054;-72
2021/12/16 08:54:06;;;;;;;3.88;3.50;;;;;;;5.99;59.72;99038.09;3389399;29;20051;-71
2021/12/16 08:55:48;;;;;;;4.30;2.08;;;;;;;6.02;59.81;99047.47;3386167;29;20564;-72
2021/12/16 08:57:29;;;;;;;3.88;2.28;;;;;;;6.03;59.89;99049.13;3383269;29;20036;-71
2021/12/16 08:59:11;;;;;;;2.28;2.08;;;;;;;6.01;59.77;99038.69;3388136;29;20432;-70
2021/12/16 09:01:01;;;;;;;3.95;2.33;;;;;;;6.05;59.95;99034.69;3389402;29;20052;-71
2021/12/16 09:02:43;;;;;;;4.20;2.30;;;;;;;6.07;59.83;99042.47;3363746;29;20145;-71
2021/12/16 09:04:24;;;;;;;3.65;2.90;;;;;;;6.07;59.83;99032.72;3368621;29;20059;-72
2021/12/16 09:06:06;;;;;;;7.18;2.72;;;;;;;6.07;59.85;99034.53;3376952;29;20420;-71
2021/12/16 09:07:49;;;;;;;3.08;2.38;;;;;;;6.02;59.81;99019.19;3376838;29;20048;-72
2021/12/16 09:09:33;;;;;;;5.72;2.42;;;;;;;6.07;59.88;99023.97;3376251;29;20134;-72
2021/12/16 09:11:20;;;;;;;3.88;2.00;;;;;;;6.08;59.91;99021.09;3383989;29;20055;-72
2021/12/16 09:13:04;;;;;;;3.20;2.25;;;;;;;6.06;59.85;99023.09;3383215;29;20076;-72
2021/12/16 09:14:45;;;;;;;3.92;2.80;;;;;;;6.09;59.81;99014.84;3379379;29;20040;-72
2021/12/16 09:16:28;;;;;;;5.18;2.42;;;;;;;6.09;60.05;99012.19;3389721;29;20051;-71
2021/12/16 09:18:09;;;;;;;2.55;1.67;;;;;;;6.11;59.88;99007.50;3389340;29;20080;-72
2021/12/16 09:19:52;;;;;;;7.30;2.58;;;;;;;6.13;59.80;99003.88;3389451;29;20055;-71
2021/12/16 09:21:35;;;;;;;2.97;2.20;;;;;;;6.13;59.74;98996.75;3386081;29;20040;-72
2021/12/16 09:23:16;;;;;;;3.25;2.47;;;;;;;6.16;59.80;99003.50;3375910;29;20048;-72
2021/12/16 09:24:57;;;;;;;2.85;2.58;;;;;;;6.18;59.64;99001.50;3416468;23;20127;-71
2021/12/16 09:26:50;;;;;;;4.68;1.88;;;;;;;6.18;59.52;98999.69;3388156;29;20099;-75
2021/12/16 09:28:35;;;;;;;4.57;2.60;;;;;;;6.21;59.63;99001.94;3402161;29;20039;-74
2021/12/16 09:30:20;;;;;;;2.87;2.10;;;;;;;6.21;59.53;98995.84;3399195;29;20047;-71
2021/12/16 09:32:03;;;;;;;5.32;2.42;;;;;;;6.22;59.64;98998.31;3400348;29;20405;-71
2021/12/16 09:33:48;;;;;;;3.40;2.28;;;;;;;6.23;59.61;98994.66;3399456;29;20043;-71
2021/12/16 09:35:33;;;;;;;3.83;2.72;;;;;;;6.26;59.49;98996.13;3398868;29;20062;-72
2021/12/16 09:37:16;;;;;;;3.75;2.67;;;;;;;6.27;59.56;98990.66;3401879;29;20046;-72
2021/12/16 09:38:58;;;;;;;2.28;2.08;;;;;;;6.28;59.63;98991.47;3394280;29;20381;-72
2021/12/16 09:40:47;;;;;;;3.10;2.35;;;;;;;6.28;59.55;98996.75;3388249;29;20456;-72
2021/12/16 09:42:28;;;;;;;4.35;2.42;;;;;;;6.30;59.64;98994.75;3388790;29;20087;-71
2021/12/16 09:44:09;;;;;;;4.57;2.07;;;;;;;6.32;59.58;99008.59;3387839;29;20098;-73
2021/12/16 09:45:52;;;;;;;5.25;2.22;;;;;;;6.32;59.57;99011.25;3388975;29;20047;-71
2021/12/16 09:47:33;;;;;;;3.83;2.40;;;;;;;6.32;59.52;99004.16;3389261;29;20583;-72
2021/12/16 09:49:15;;;;;;;3.25;2.22;;;;;;;6.31;59.60;98996.38;3388926;29;20138;-71
2021/12/16 09:50:56;;;;;;;;;;;;;;;6.43;59.40;98992.28;3389638;29;20044;-71
2021/12/16 09:52:36;;;;;;;3.55;2.08;;;;;;;6.36;59.44;98986.06;3389336;29;19954;-72
2021/12/16 09:54:23;;;;;;;4.47;2.13;;;;;;;6.34;59.47;98975.66;3388458;29;20523;-72
2021/12/16 09:56:08;;;;;;;2.53;1.65;;;;;;;6.35;59.44;98973.84;3389047;29;20608;-73
2021/12/16 09:57:50;;;;;;;5.00;2.55;;;;;;;6.36;59.47;98964.09;3388883;29;20051;-71
2021/12/16 09:59:32;;;;;;;4.38;3.75;;;;;;;6.37;59.57;98958.59;3389205;29;20127;-72
2021/12/16 10:01:13;;;;;;;;;;;;;;;6.48;59.40;98954.63;3389031;29;20036;-72
2021/12/16 10:02:53;;;;;;;6.57;3.42;;;;;;;6.42;59.28;98956.19;3392988;29;19918;-72
2021/12/16 10:04:35;;;;;;;4.15;2.58;;;;;;;6.41;59.57;98953.75;3391046;29;20515;-72
2021/12/16 10:06:17;;;;;;;2.75;1.85;;;;;;;6.41;59.44;98948.47;3401855;29;20036;-72
2021/12/16 10:07:58;;;;;;;4.70;2.40;;;;;;;6.41;59.37;98941.34;3400101;29;20086;-71
2021/12/16 10:09:41;;;;;;;3.38;2.17;;;;;;;6.42;59.62;98947.44;3389667;29;20068;-71
2021/12/16 10:11:21;;;;;;;3.40;2.28;;;;;;;6.43;59.59;98949.91;3391121;29;20048;-71
2021/12/16 10:13:04;;;;;;;3.33;2.28;;;;;;;6.44;59.52;98954.19;3398248;29;20522;-70
2021/12/16 10:18:37;;;;;;;2.08;1.88;;;;;;;6.44;59.65;98938.31;3399681;29;20044;-71
2021/12/16 10:20:26;;;;;;;3.50;2.50;;;;;;;6.46;59.59;98949.53;3400712;29;20419;-71
2021/12/16 10:22:34;;;;;;;2.75;2.13;;;;;;;6.50;59.59;98947.34;3397374;29;20067;-71
2021/12/16 10:24:23;;;;;;;5.82;2.13;;;;;;;6.49;59.38;98935.13;3399966;29;20071;-70
2021/12/16 10:26:07;;;;;;;3.95;2.53;;;;;;;6.47;59.59;98929.19;3401540;29;20055;-71
2021/12/16 10:28:16;;;;;;;2.67;1.92;;;;;;;6.52;59.45;98929.44;3401669;29;20047;-70
2021/12/16 10:30:05;;;;;;;3.42;1.70;;;;;;;6.49;59.50;98928.00;3391751;29;20094;-70
2021/12/16 10:31:45;;;;;;;5.25;1.73;;;;;;;6.48;59.30;98923.72;3389078;29;20040;-72
2021/12/16 10:33:32;;;;;;;2.08;1.70;;;;;;;6.50;59.46;98921.69;3388899;29;20040;-72
2021/12/16 10:35:27;;;;;;;5.07;1.98;;;;;;;6.50;59.52;98926.97;3388826;29;20048;-71
2021/12/16 10:37:09;;;;;;;2.08;1.63;;;;;;;6.49;59.56;98922.69;3391414;29;20347;-70
2021/12/16 10:38:52;;;;;;;5.68;2.88;;;;;;;6.48;59.48;98917.56;3390752;29;20048;-73
2021/12/16 10:40:40;;;;;;;3.40;1.75;;;;;;;6.48;59.70;98921.06;3399093;29;20058;-72
2021/12/16 10:42:21;;;;;;;5.95;2.00;;;;;;;6.48;59.46;98913.13;3404568;29;20519;-72
2021/12/16 10:44:02;;;;;;;2.33;1.67;;;;;;;6.49;59.49;98920.06;3403006;29;20039;-73
2021/12/16 10:45:48;;;;;;;3.17;1.90;;;;;;;6.51;59.53;98902.16;3398872;29;20630;-72
2021/12/16 10:47:29;;;;;;;3.30;1.92;;;;;;;6.50;59.56;98913.72;3378386;29;20053;-73
2021/12/16 10:49:16;;;;;;;2.95;1.80;;;;;;;6.52;59.54;98909.09;3378452;29;20053;-72